createdAt,value
2022-11-29T00:01:35.977Z,5.46
2022-11-29T00:03:44.184Z,5.47
2022-11-29T00:05:52.181Z,5.60
2022-11-29T00:08:00.068Z,5.59
2022-11-29T00:10:09.827Z,5.61
2022-11-29T00:12:18.547Z,5.50
2022-11-29T00:14:30.279Z,5.48
2022-11-29T00:16:40.991Z,5.66
2022-11-29T00:18:52.366Z,5.55
2022-11-29T00:21:00.554Z,5.55
2022-11-29T00:23:09.164Z,5.61
2022-11-29T00:25:17.400Z,5.67
2022-11-29T00:27:25.296Z,5.60
2022-11-29T00:29:36.148Z,5.64
2022-11-29T00:31:44.572Z,5.64
2022-11-29T00:33:53.094Z,5.72
2022-11-29T00:36:04.624Z,5.78
2022-11-29T00:38:12.697Z,5.73
2022-11-29T00:40:21.146Z,5.74
2022-11-29T00:42:29.268Z,5.76
2022-11-29T00:44:39.959Z,5.73
2022-11-29T00:46:48.157Z,5.68
2022-11-29T00:48:56.499Z,5.67
2022-11-29T00:51:04.484Z,5.66
2022-11-29T00:53:12.621Z,5.58
2022-11-29T00:55:20.695Z,5.58
2022-11-29T00:57:29.059Z,5.63
2022-11-29T00:59:39.672Z,5.66
2022-11-29T01:01:47.608Z,5.66
2022-11-29T01:03:55.477Z,5.67
2022-11-29T01:06:04.591Z,5.66
2022-11-29T01:08:12.647Z,5.67
2022-11-29T01:10:20.796Z,5.64
2022-11-29T01:12:29.263Z,5.70
2022-11-29T01:14:40.261Z,5.66
2022-11-29T01:16:48.557Z,5.67
2022-11-29T01:18:56.532Z,5.73
2022-11-29T01:21:07.297Z,5.73
2022-11-29T01:23:15.179Z,5.76
2022-11-29T01:25:23.689Z,5.72
2022-11-29T01:27:32.515Z,5.79
2022-11-29T01:29:43.077Z,5.87
2022-11-29T01:31:50.987Z,5.88
2022-11-29T01:34:00.128Z,5.86
2022-11-29T01:36:09.972Z,5.92
2022-11-29T01:38:18.090Z,5.94
2022-11-29T01:40:26.325Z,5.81
2022-11-29T01:42:34.200Z,5.86
2022-11-29T01:45:08.009Z,5.95
2022-11-29T01:47:16.104Z,5.97
2022-11-29T01:49:27.684Z,5.99
2022-11-29T01:51:39.244Z,5.99
2022-11-29T01:53:47.478Z,6.00
2022-11-29T01:55:59.136Z,5.98
2022-11-29T01:58:09.470Z,5.92
2022-11-29T02:00:22.799Z,5.90
2022-11-29T02:02:35.239Z,5.92
2022-11-29T02:04:48.064Z,5.97
2022-11-29T02:06:56.400Z,5.97
2022-11-29T02:09:05.778Z,5.95
2022-11-29T02:11:45.363Z,5.94
2022-11-29T02:14:07.654Z,5.93
2022-11-29T02:16:26.886Z,5.98
2022-11-29T02:18:48.644Z,5.95
2022-11-29T02:21:18.331Z,5.95
2022-11-29T02:23:51.779Z,5.93
2022-11-29T02:26:15.244Z,5.94
2022-11-29T02:28:52.987Z,5.87
2022-11-29T02:31:37.821Z,5.96
2022-11-29T02:34:10.240Z,5.90
2022-11-29T02:36:29.368Z,5.82
2022-11-29T02:39:03.530Z,5.88
2022-11-29T02:41:30.649Z,5.94
2022-11-29T02:44:12.569Z,5.85
2022-11-29T02:46:47.326Z,5.86
2022-11-29T02:49:03.261Z,5.83
2022-11-29T02:51:18.121Z,5.83
2022-11-29T02:53:35.566Z,5.79
2022-11-29T02:55:51.456Z,5.87
2022-11-29T02:58:05.781Z,5.87
2022-11-29T03:00:17.923Z,5.93
2022-11-29T03:02:33.887Z,5.80
2022-11-29T03:04:50.778Z,5.93
2022-11-29T03:07:09.222Z,5.97
2022-11-29T03:09:28.207Z,6.05
2022-11-29T03:11:43.762Z,5.96
2022-11-29T03:13:59.561Z,6.08
2022-11-29T03:16:14.548Z,6.01
2022-11-29T03:18:37.743Z,6.04
2022-11-29T03:21:00.742Z,5.92
2022-11-29T03:23:22.969Z,5.90
2022-11-29T03:25:40.108Z,5.94
2022-11-29T03:27:53.725Z,5.93
2022-11-29T03:30:05.590Z,5.87
2022-11-29T03:32:19.420Z,5.88
2022-11-29T03:34:40.141Z,5.90
2022-11-29T03:36:56.771Z,5.87
2022-11-29T03:39:12.944Z,5.88
2022-11-29T03:41:28.268Z,5.77
2022-11-29T03:43:45.752Z,5.78
2022-11-29T03:46:01.830Z,5.84
2022-11-29T03:48:15.514Z,5.87
2022-11-29T03:50:29.935Z,5.90
2022-11-29T03:52:46.037Z,5.91
2022-11-29T03:55:06.476Z,5.90
2022-11-29T03:57:20.932Z,6.03
2022-11-29T03:59:49.152Z,6.00
2022-11-29T04:02:14.991Z,5.94
2022-11-29T04:05:04.849Z,5.88
2022-11-29T04:07:33.194Z,6.00
2022-11-29T04:10:00.661Z,6.13
2022-11-29T04:12:44.571Z,6.07
2022-11-29T04:15:18.507Z,6.11
2022-11-29T04:18:08.015Z,6.12
2022-11-29T04:20:48.584Z,6.14
2022-11-29T04:23:20.067Z,6.05
2022-11-29T04:25:51.088Z,6.20
2022-11-29T04:28:26.903Z,6.15
2022-11-29T04:30:46.374Z,6.21
2022-11-29T04:33:20.005Z,6.15
2022-11-29T04:35:41.550Z,6.18
2022-11-29T04:38:22.197Z,6.24
2022-11-29T04:40:44.377Z,6.23
2022-11-29T04:43:18.906Z,6.21
2022-11-29T04:45:47.946Z,6.20
2022-11-29T04:48:11.202Z,6.26
2022-11-29T04:50:30.840Z,6.36
2022-11-29T04:52:59.027Z,6.39
2022-11-29T04:55:27.655Z,6.33
2022-11-29T04:57:44.741Z,6.31
2022-11-29T04:59:59.999Z,6.30
2022-11-29T05:02:27.372Z,6.36
2022-11-29T05:04:44.047Z,6.38
2022-11-29T05:07:05.515Z,6.33
2022-11-29T05:09:22.791Z,6.39
2022-11-29T05:11:46.424Z,6.54
2022-11-29T05:14:01.834Z,6.45
2022-11-29T05:16:18.985Z,6.43
2022-11-29T05:18:48.554Z,6.46
2022-11-29T05:21:03.694Z,6.41
2022-11-29T05:23:28.267Z,6.38
2022-11-29T05:25:46.266Z,6.41
2022-11-29T05:28:02.502Z,6.46
2022-11-29T05:30:17.855Z,6.42
2022-11-29T05:32:32.692Z,6.41
2022-11-29T05:34:57.207Z,6.43
2022-11-29T05:37:16.692Z,6.42
2022-11-29T05:39:39.378Z,6.43
2022-11-29T05:42:05.888Z,6.41
2022-11-29T05:44:19.047Z,6.42
2022-11-29T05:46:35.563Z,6.48
2022-11-29T05:48:54.124Z,6.47
2022-11-29T05:51:19.568Z,6.46
2022-11-29T05:53:33.402Z,6.47
2022-11-29T05:55:52.641Z,6.49
2022-11-29T05:58:05.613Z,6.59
2022-11-29T06:00:16.990Z,6.52
2022-11-29T06:02:35.975Z,6.54
2022-11-29T06:05:00.450Z,6.56
2022-11-29T06:07:19.392Z,6.58
2022-11-29T06:09:34.525Z,6.59
2022-11-29T06:11:49.035Z,6.58
2022-11-29T06:14:07.225Z,6.57
2022-11-29T06:16:59.411Z,6.62
2022-11-29T06:19:49.274Z,6.58
2022-11-29T06:22:10.274Z,6.54
2022-11-29T06:24:36.907Z,6.52
2022-11-29T06:27:02.424Z,6.56
2022-11-29T06:29:26.988Z,6.51
2022-11-29T06:31:43.607Z,6.54
2022-11-29T06:34:01.986Z,6.57
2022-11-29T06:36:19.269Z,6.50
2022-11-29T06:38:30.548Z,6.48
2022-11-29T06:40:41.831Z,6.53
2022-11-29T06:42:49.726Z,6.56
2022-11-29T06:44:58.867Z,6.50
2022-11-29T06:47:10.518Z,6.59
2022-11-29T06:49:26.921Z,6.58
2022-11-29T06:51:39.326Z,6.62
2022-11-29T06:53:56.246Z,6.60
2022-11-29T06:56:15.413Z,6.57
2022-11-29T06:58:44.954Z,6.64
2022-11-29T07:01:02.633Z,6.51
2022-11-29T07:03:31.276Z,6.47
2022-11-29T07:05:41.635Z,6.44
2022-11-29T07:07:53.294Z,6.48
2022-11-29T07:10:02.388Z,6.57
2022-11-29T07:12:15.537Z,6.63
2022-11-29T07:14:25.324Z,6.64
2022-11-29T07:16:40.497Z,6.61
2022-11-29T07:18:57.952Z,6.71
2022-11-29T07:21:18.337Z,6.67
2022-11-29T07:23:37.668Z,6.58
2022-11-29T07:25:56.166Z,6.64
2022-11-29T07:28:19.164Z,6.62
2022-11-29T07:30:37.342Z,6.67
2022-11-29T07:33:00.108Z,6.69
2022-11-29T07:35:17.747Z,6.69
2022-11-29T07:37:36.398Z,6.62
2022-11-29T07:40:00.414Z,6.73
2022-11-29T07:42:20.621Z,6.75
2022-11-29T07:44:39.983Z,6.67
2022-11-29T07:46:49.341Z,6.58
2022-11-29T07:48:58.534Z,6.51
2022-11-29T07:51:08.081Z,6.65
2022-11-29T07:53:19.851Z,6.69
2022-11-29T07:55:29.802Z,6.76
2022-11-29T07:57:39.501Z,6.78
2022-11-29T07:59:51.219Z,6.74
2022-11-29T08:01:59.411Z,6.76
2022-11-29T08:04:08.652Z,6.70
2022-11-29T08:06:16.464Z,6.77
2022-11-29T08:08:25.180Z,6.71
2022-11-29T08:10:33.392Z,6.80
2022-11-29T08:12:46.699Z,6.70
2022-11-29T08:14:57.095Z,6.73
2022-11-29T08:17:05.018Z,6.71
2022-11-29T08:19:12.929Z,6.76
2022-11-29T08:21:21.200Z,6.68
2022-11-29T08:24:04.111Z,6.72
2022-11-29T08:26:31.600Z,6.67
2022-11-29T08:28:56.294Z,6.67
2022-11-29T08:31:12.494Z,6.72
2022-11-29T08:33:21.389Z,6.66
2022-11-29T08:35:29.439Z,6.71
2022-11-29T08:37:37.478Z,6.84
2022-11-29T08:39:47.034Z,6.80
2022-11-29T08:41:54.968Z,6.66
2022-11-29T08:44:03.178Z,6.65
2022-11-29T08:46:18.516Z,6.75
2022-11-29T08:48:26.909Z,6.82
2022-11-29T08:50:34.841Z,6.90
2022-11-29T08:52:56.945Z,6.86
2022-11-29T08:55:04.790Z,6.80
2022-11-29T08:59:44.957Z,6.83
2022-11-29T09:01:55.346Z,6.80
2022-11-29T09:04:03.287Z,6.85
2022-11-29T09:06:13.317Z,6.86
2022-11-29T09:08:21.301Z,6.90
2022-11-29T09:10:32.268Z,6.88
2022-11-29T09:12:41.001Z,7.01
2022-11-29T09:14:53.496Z,7.08
2022-11-29T09:17:04.418Z,7.00
2022-11-29T09:19:13.472Z,7.04
2022-11-29T09:21:21.861Z,7.05
2022-11-29T09:23:32.017Z,7.14
2022-11-29T09:25:41.710Z,7.14
2022-11-29T09:27:49.466Z,7.17
2022-11-29T09:29:57.362Z,7.19
2022-11-29T09:32:09.504Z,7.19
2022-11-29T09:34:18.551Z,7.20
2022-11-29T09:36:28.997Z,7.30
2022-11-29T09:38:38.371Z,7.43
2022-11-29T09:40:55.039Z,7.35
2022-11-29T09:43:10.927Z,7.33
2022-11-29T09:45:24.084Z,7.40
2022-11-29T09:47:56.870Z,7.31
2022-11-29T09:50:20.812Z,7.21
2022-11-29T09:52:39.526Z,7.34
2022-11-29T09:54:57.672Z,7.40
2022-11-29T09:57:10.819Z,7.30
2022-11-29T09:59:25.854Z,7.43
2022-11-29T10:01:38.724Z,7.43
2022-11-29T10:03:54.670Z,7.31
2022-11-29T10:06:08.934Z,7.27
2022-11-29T10:08:23.590Z,7.23
2022-11-29T10:10:37.922Z,7.10
2022-11-29T10:12:51.702Z,6.90
2022-11-29T10:15:09.257Z,7.00
2022-11-29T10:17:28.651Z,6.91
2022-11-29T10:19:44.705Z,7.00
2022-11-29T10:22:01.271Z,7.07
2022-11-29T10:24:17.975Z,7.03
2022-11-29T10:26:32.020Z,7.15
2022-11-29T10:28:48.758Z,7.20
2022-11-29T10:30:58.607Z,7.14
2022-11-29T10:33:16.055Z,7.21
2022-11-29T10:35:27.392Z,7.11
2022-11-29T10:37:35.526Z,7.07
2022-11-29T10:39:49.348Z,7.06
2022-11-29T10:41:59.913Z,7.00
2022-11-29T10:44:09.140Z,7.06
2022-11-29T10:46:26.648Z,6.95
2022-11-29T10:48:38.248Z,6.99
2022-11-29T10:50:52.651Z,7.00
2022-11-29T10:53:09.298Z,7.12
2022-11-29T10:55:19.968Z,7.09
2022-11-29T10:57:28.068Z,7.16
2022-11-29T10:59:37.291Z,7.24
2022-11-29T11:01:49.070Z,7.06
2022-11-29T11:03:58.946Z,7.14
2022-11-29T11:06:17.215Z,7.32
2022-11-29T11:08:28.426Z,7.26
2022-11-29T11:10:36.237Z,7.21
2022-11-29T11:12:44.317Z,7.18
2022-11-29T11:14:52.289Z,7.16
2022-11-29T11:17:18.269Z,7.16
2022-11-29T11:19:33.582Z,7.24
2022-11-29T11:21:44.514Z,7.21
2022-11-29T11:24:00.575Z,7.29
2022-11-29T11:26:11.255Z,7.40
2022-11-29T11:28:24.187Z,7.39
2022-11-29T11:30:32.861Z,7.40
2022-11-29T11:32:40.916Z,7.37
2022-11-29T11:34:55.007Z,7.37
2022-11-29T11:37:31.854Z,7.39
2022-11-29T11:39:39.789Z,7.36
2022-11-29T11:42:00.826Z,7.38
2022-11-29T11:44:45.666Z,7.37
2022-11-29T11:46:51.424Z,7.25
2022-11-29T11:48:59.336Z,7.19
2022-11-29T11:51:08.348Z,7.11
2022-11-29T11:53:28.128Z,7.22
2022-11-29T11:55:39.495Z,7.13
2022-11-29T11:57:48.306Z,7.18
2022-11-29T12:00:06.626Z,7.25
2022-11-29T12:02:41.014Z,7.12
2022-11-29T12:04:49.373Z,7.01
2022-11-29T12:07:03.134Z,7.07
2022-11-29T12:09:26.068Z,7.22
2022-11-29T12:11:42.606Z,7.19
2022-11-29T12:13:55.269Z,7.09
2022-11-29T12:16:11.715Z,7.25
2022-11-29T12:18:26.602Z,7.22
2022-11-29T12:20:42.524Z,7.26
2022-11-29T12:23:19.575Z,7.35
2022-11-29T12:25:35.288Z,7.47
2022-11-29T12:27:44.543Z,7.32
2022-11-29T12:29:52.519Z,7.46
2022-11-29T12:32:14.338Z,7.45
2022-11-29T12:34:35.047Z,7.44
2022-11-29T12:36:53.794Z,7.42
2022-11-29T12:39:26.939Z,7.35
2022-11-29T12:41:53.765Z,7.32
2022-11-29T12:44:14.331Z,7.32
2022-11-29T12:46:28.251Z,7.29
2022-11-29T12:48:46.469Z,7.32
2022-11-29T12:51:04.111Z,7.22
2022-11-29T12:53:27.543Z,7.22
2022-11-29T12:55:46.349Z,7.18
2022-11-29T12:58:05.786Z,7.25
2022-11-29T13:00:16.574Z,7.22
2022-11-29T13:02:33.795Z,7.27
2022-11-29T13:04:48.595Z,7.33
2022-11-29T13:07:02.669Z,7.33
2022-11-29T13:09:38.931Z,7.37
2022-11-29T13:11:58.394Z,7.43
2022-11-29T13:16:56.334Z,7.46
2022-11-29T13:19:12.091Z,7.36
2022-11-29T13:21:26.161Z,7.29
2022-11-29T13:24:10.739Z,7.42
2022-11-29T13:26:15.173Z,7.32
2022-11-29T13:28:28.126Z,7.43
2022-11-29T13:30:41.791Z,7.34
2022-11-29T13:32:55.959Z,7.41
2022-11-29T13:35:09.021Z,7.30
2022-11-29T13:37:23.717Z,7.35
2022-11-29T13:39:42.845Z,7.32
2022-11-29T13:41:58.249Z,7.23
2022-11-29T13:44:17.201Z,7.31
2022-11-29T13:46:32.981Z,7.27
2022-11-29T13:48:51.043Z,7.18
2022-11-29T13:51:00.269Z,7.28
2022-11-29T13:53:15.347Z,7.20
2022-11-29T13:55:29.448Z,7.17
2022-11-29T14:00:35.281Z,7.13
2022-11-29T14:02:46.213Z,7.19
2022-11-29T14:04:55.196Z,7.12
2022-11-29T14:07:15.528Z,7.19
2022-11-29T14:09:31.856Z,7.13
2022-11-29T14:11:48.855Z,6.99
2022-11-29T14:14:04.486Z,6.96
2022-11-29T14:16:21.289Z,6.90
2022-11-29T14:19:11.856Z,6.91
2022-11-29T14:21:22.414Z,6.82
2022-11-29T14:23:54.166Z,6.91
2022-11-29T14:26:35.787Z,6.88
2022-11-29T14:28:43.952Z,6.90
2022-11-29T14:30:53.547Z,6.82
2022-11-29T14:33:08.662Z,6.84
2022-11-29T14:35:24.601Z,6.71
2022-11-29T14:37:58.501Z,6.80
2022-11-29T14:40:22.548Z,6.86
2022-11-29T14:42:32.311Z,6.86
2022-11-29T14:44:46.879Z,6.91
2022-11-29T14:47:04.283Z,6.77
2022-11-29T14:49:24.479Z,6.77
2022-11-29T14:51:34.479Z,6.78
2022-11-29T14:53:49.964Z,6.67
2022-11-29T14:56:30.506Z,6.73
2022-11-29T14:58:38.405Z,6.67
2022-11-29T15:01:09.713Z,6.63
2022-11-29T15:03:24.620Z,6.57
2022-11-29T15:05:37.376Z,6.53
2022-11-29T15:07:48.392Z,6.63
2022-11-29T15:10:04.413Z,6.58
2022-11-29T15:12:19.709Z,6.56
2022-11-29T15:14:45.640Z,6.60
2022-11-29T15:17:20.627Z,6.53
2022-11-29T15:20:00.898Z,6.66
2022-11-29T15:22:17.292Z,6.60
2022-11-29T15:24:28.771Z,6.52
2022-11-29T15:26:39.540Z,6.53
2022-11-29T15:28:49.898Z,6.49
2022-11-29T15:31:06.200Z,6.53
2022-11-29T15:33:23.730Z,6.52
2022-11-29T15:35:32.668Z,6.53
2022-11-29T15:37:46.021Z,6.52
2022-11-29T15:40:06.482Z,6.45
2022-11-29T15:42:18.408Z,6.57
2022-11-29T15:44:26.244Z,6.50
2022-11-29T15:46:35.969Z,6.47
2022-11-29T15:48:43.923Z,6.52
2022-11-29T15:51:06.197Z,6.45
2022-11-29T15:53:23.129Z,6.44
2022-11-29T15:55:31.566Z,6.45
2022-11-29T15:57:46.221Z,6.53
2022-11-29T15:59:57.927Z,6.46
2022-11-29T16:02:11.682Z,6.45
2022-11-29T16:04:24.465Z,6.40
2022-11-29T16:06:39.361Z,6.39
2022-11-29T16:08:47.350Z,6.36
2022-11-29T16:10:56.207Z,6.36
2022-11-29T16:13:10.796Z,6.39
2022-11-29T16:15:29.306Z,6.39
2022-11-29T16:17:38.370Z,6.39
2022-11-29T16:19:48.300Z,6.36
2022-11-29T16:22:05.334Z,6.38
2022-11-29T16:24:23.181Z,6.44
2022-11-29T16:26:37.111Z,6.40
2022-11-29T16:28:50.382Z,6.44
2022-11-29T16:31:00.131Z,6.50
2022-11-29T16:33:10.179Z,6.51
2022-11-29T16:35:23.975Z,6.48
2022-11-29T16:37:37.065Z,6.32
2022-11-29T16:39:49.277Z,6.36
2022-11-29T16:42:08.950Z,6.32
2022-11-29T16:45:02.776Z,6.33
2022-11-29T16:47:14.945Z,6.35
2022-11-29T16:49:38.598Z,6.39
2022-11-29T16:51:49.210Z,6.54
2022-11-29T16:53:57.554Z,6.38
2022-11-29T16:56:06.456Z,6.24
2022-11-29T16:58:15.339Z,6.21
2022-11-29T17:00:34.359Z,6.20
2022-11-29T17:02:43.528Z,6.14
2022-11-29T17:04:53.932Z,6.14
2022-11-29T17:07:02.821Z,6.19
2022-11-29T17:09:13.312Z,6.23
2022-11-29T17:11:22.482Z,6.21
2022-11-29T17:13:30.920Z,6.21
2022-11-29T17:15:42.704Z,6.30
2022-11-29T17:17:50.914Z,6.24
2022-11-29T17:19:59.312Z,6.35
2022-11-29T17:22:07.246Z,6.31
2022-11-29T17:24:17.742Z,6.28
2022-11-29T17:26:26.845Z,6.22
2022-11-29T17:28:35.328Z,6.35
2022-11-29T17:30:46.338Z,6.34
2022-11-29T17:32:54.492Z,6.36
2022-11-29T17:35:02.551Z,6.32
2022-11-29T17:37:10.430Z,6.30
2022-11-29T17:39:20.341Z,6.28
2022-11-29T17:41:32.690Z,6.22
2022-11-29T17:43:40.886Z,6.25
2022-11-29T17:45:51.669Z,6.18
2022-11-29T17:48:01.992Z,6.19
2022-11-29T17:50:11.198Z,6.22
2022-11-29T17:52:22.761Z,6.09
2022-11-29T17:54:33.157Z,6.01
2022-11-29T17:56:44.311Z,6.04
2022-11-29T17:58:57.070Z,5.96
2022-11-29T18:01:13.114Z,5.96
2022-11-29T18:03:21.194Z,6.04
2022-11-29T18:05:34.362Z,5.95
2022-11-29T18:07:58.120Z,6.06
2022-11-29T18:10:06.666Z,5.95
2022-11-29T18:12:14.600Z,5.95
2022-11-29T18:14:28.292Z,5.93
2022-11-29T18:16:39.231Z,5.98
2022-11-29T18:18:51.510Z,5.98
2022-11-29T18:21:01.368Z,5.94
2022-11-29T18:23:13.287Z,6.01
2022-11-29T18:27:50.458Z,6.08
2022-11-29T18:29:59.906Z,6.12
2022-11-29T18:32:12.658Z,6.08
2022-11-29T18:34:20.541Z,6.12
2022-11-29T18:36:30.291Z,6.03
2022-11-29T18:38:38.099Z,6.09
2022-11-29T18:40:50.647Z,6.15
2022-11-29T18:42:58.758Z,6.13
2022-11-29T18:45:10.341Z,6.13
2022-11-29T18:47:20.904Z,6.15
2022-11-29T18:49:28.946Z,6.10
2022-11-29T18:51:38.087Z,6.16
2022-11-29T18:53:46.656Z,6.12
2022-11-29T18:56:02.771Z,6.22
2022-11-29T18:58:10.646Z,6.21
2022-11-29T19:00:19.761Z,6.14
2022-11-29T19:02:30.168Z,6.17
2022-11-29T19:04:38.154Z,6.22
2022-11-29T19:06:46.226Z,6.27
2022-11-29T19:08:57.132Z,6.22
2022-11-29T19:11:07.446Z,6.18
2022-11-29T19:13:15.312Z,6.13
2022-11-29T19:15:23.149Z,6.17
2022-11-29T19:17:37.654Z,6.09
2022-11-29T19:19:48.675Z,6.11
2022-11-29T19:21:56.542Z,6.03
2022-11-29T19:24:07.680Z,5.99
2022-11-29T19:26:16.969Z,5.97
2022-11-29T19:28:24.907Z,6.02
2022-11-29T19:30:32.817Z,6.01
2022-11-29T19:32:43.950Z,5.98
2022-11-29T19:34:52.834Z,6.01
2022-11-29T19:37:00.528Z,5.99
2022-11-29T19:39:08.356Z,5.96
2022-11-29T19:41:18.861Z,5.94
2022-11-29T19:43:26.755Z,6.01
2022-11-29T19:45:34.553Z,6.06
2022-11-29T19:47:45.329Z,5.95
2022-11-29T19:49:55.032Z,6.09
2022-11-29T19:52:04.621Z,5.97
2022-11-29T19:54:13.161Z,6.00
2022-11-29T19:56:20.910Z,6.01
2022-11-29T19:58:29.524Z,5.92
2022-11-29T20:00:37.472Z,5.75
2022-11-29T20:02:48.161Z,5.74
2022-11-29T20:04:56.265Z,5.79
2022-11-29T20:07:06.895Z,5.81
2022-11-29T20:09:16.496Z,5.82
2022-11-29T20:11:27.479Z,5.95
2022-11-29T20:13:35.536Z,5.94
2022-11-29T20:15:43.408Z,5.91
2022-11-29T20:17:54.698Z,5.83
2022-11-29T20:20:02.783Z,5.82
2022-11-29T20:22:10.777Z,5.84
2022-11-29T20:24:26.169Z,5.88
2022-11-29T20:26:36.419Z,5.75
2022-11-29T20:28:44.566Z,5.82
2022-11-29T20:30:55.346Z,5.77
2022-11-29T20:33:07.007Z,5.84
2022-11-29T20:35:18.505Z,5.80
2022-11-29T20:37:48.650Z,5.83
2022-11-29T20:40:02.612Z,5.80
2022-11-29T20:42:37.856Z,5.85
2022-11-29T20:44:54.877Z,5.79
2022-11-29T20:47:03.823Z,5.76
2022-11-29T20:49:19.174Z,5.87
2022-11-29T20:51:32.606Z,5.82
2022-11-29T20:53:43.102Z,5.80
2022-11-29T20:55:52.906Z,5.88
2022-11-29T20:58:00.778Z,5.83
2022-11-29T21:00:10.695Z,5.74
2022-11-29T21:02:18.740Z,5.64
2022-11-29T21:04:30.388Z,5.59
2022-11-29T21:06:42.215Z,5.63
2022-11-29T21:08:51.237Z,5.67
2022-11-29T21:11:04.784Z,5.72
2022-11-29T21:13:14.320Z,5.75
2022-11-29T21:15:23.134Z,5.74
2022-11-29T21:17:33.771Z,5.74
2022-11-29T21:19:45.331Z,5.66
2022-11-29T21:22:03.113Z,5.67
2022-11-29T21:24:23.436Z,5.72
2022-11-29T21:26:41.358Z,5.72
2022-11-29T21:29:00.284Z,5.69
2022-11-29T21:31:09.057Z,5.72
2022-11-29T21:33:17.503Z,5.76
2022-11-29T21:35:29.206Z,5.65
2022-11-29T21:37:39.171Z,5.71
2022-11-29T21:39:47.207Z,5.80
2022-11-29T21:41:55.719Z,5.74
2022-11-29T21:44:07.940Z,5.69
2022-11-29T21:46:17.011Z,5.73
2022-11-29T21:48:42.359Z,5.54
2022-11-29T21:50:56.441Z,5.59
2022-11-29T21:53:04.429Z,5.59
2022-11-29T21:55:12.453Z,5.63
2022-11-29T21:57:21.009Z,5.64
2022-11-29T21:59:28.798Z,5.69
2022-11-29T22:01:39.575Z,5.60
2022-11-29T22:03:47.885Z,5.66
2022-11-29T22:06:04.388Z,5.65
2022-11-29T22:08:13.269Z,5.71
2022-11-29T22:10:25.023Z,5.76
2022-11-29T22:12:34.645Z,5.46
2022-11-29T22:14:43.109Z,5.54
2022-11-29T22:16:52.596Z,5.59
2022-11-29T22:19:00.481Z,5.57
2022-11-29T22:21:11.043Z,5.42
2022-11-29T22:23:19.018Z,5.50
2022-11-29T22:25:27.932Z,5.53
2022-11-29T22:27:35.723Z,5.54
2022-11-29T22:29:45.336Z,5.58
2022-11-29T22:31:55.110Z,5.54
2022-11-29T22:34:04.472Z,5.67
2022-11-29T22:36:16.714Z,5.69
2022-11-29T22:38:25.829Z,5.67
2022-11-29T22:40:35.384Z,5.74
2022-11-29T22:42:43.958Z,5.74
2022-11-29T22:44:54.586Z,5.72
2022-11-29T22:47:03.976Z,5.70
2022-11-29T22:49:12.028Z,5.69
2022-11-29T22:51:24.218Z,5.66
2022-11-29T22:53:32.054Z,5.72
2022-11-29T22:55:40.091Z,5.71
2022-11-29T22:57:47.990Z,5.72
2022-11-29T22:59:55.911Z,5.68
2022-11-29T23:02:05.044Z,5.74
2022-11-29T23:04:16.204Z,5.71
2022-11-29T23:06:28.215Z,5.62
2022-11-29T23:08:36.384Z,5.72
2022-11-29T23:10:44.202Z,5.75
2022-11-29T23:12:52.060Z,5.73
2022-11-29T23:15:02.165Z,5.71
2022-11-29T23:17:09.944Z,5.73
2022-11-29T23:19:19.348Z,5.69
2022-11-29T23:21:32.270Z,5.76
2022-11-29T23:23:40.716Z,5.74
2022-11-29T23:25:51.557Z,5.73
2022-11-29T23:27:59.438Z,5.67
2022-11-29T23:30:09.736Z,5.78
2022-11-29T23:32:28.551Z,5.71
2022-11-29T23:34:37.838Z,5.76
2022-11-29T23:36:52.720Z,5.74
2022-11-29T23:39:01.090Z,5.73
2022-11-29T23:41:09.747Z,5.71
2022-11-29T23:43:17.637Z,5.67
2022-11-29T23:45:25.564Z,5.64
2022-11-29T23:47:33.403Z,5.76
2022-11-29T23:49:41.372Z,5.78
2022-11-29T23:51:52.896Z,5.78
2022-11-29T23:54:00.925Z,5.77
2022-11-29T23:56:10.751Z,5.74
2022-11-29T23:58:18.593Z,5.72
